createdAt,value
2018-12-25T00:00:09.416Z,5.10
2018-12-25T00:03:09.309Z,5.10
2018-12-25T00:06:11.476Z,5.10
2018-12-25T00:09:31.174Z,5.10
2018-12-25T00:12:30.467Z,5.10
2018-12-25T00:15:29.725Z,5.10
2018-12-25T00:18:52.192Z,5.10
2018-12-25T00:21:51.534Z,5.10
2018-12-25T00:24:51.033Z,5.10
2018-12-25T00:27:50.097Z,5.00
2018-12-25T00:30:49.549Z,5.10
2018-12-25T00:33:49.114Z,5.10
2018-12-25T00:36:48.361Z,5.10
2018-12-25T00:39:47.621Z,5.20
2018-12-25T00:42:47.126Z,5.20
2018-12-25T00:45:46.574Z,5.20
2018-12-25T00:48:45.791Z,5.20
2018-12-25T00:51:45.360Z,5.20
2018-12-25T00:54:47.628Z,5.20
2018-12-25T00:57:50.188Z,5.20
2018-12-25T01:00:49.548Z,5.20
2018-12-25T01:03:48.624Z,5.20
2018-12-25T01:06:48.168Z,5.30
2018-12-25T01:09:47.514Z,5.20
2018-12-25T01:12:46.706Z,5.20
2018-12-25T01:15:45.975Z,5.20
2018-12-25T01:18:45.089Z,5.20
2018-12-25T01:21:44.336Z,5.30
2018-12-25T01:24:43.760Z,5.30
2018-12-25T01:27:43.342Z,5.30
2018-12-25T01:30:42.813Z,5.30
2018-12-25T01:33:42.053Z,5.30
2018-12-25T01:36:41.428Z,5.30
2018-12-25T01:39:40.785Z,5.20
2018-12-25T01:42:40.341Z,5.30
2018-12-25T01:45:59.912Z,5.20
2018-12-25T01:48:48.771Z,5.30
2018-12-25T01:51:54.690Z,5.30
2018-12-25T01:55:14.350Z,5.30
2018-12-25T01:58:14.730Z,5.30
2018-12-25T02:01:14.105Z,5.30
2018-12-25T02:04:13.511Z,5.30
2018-12-25T02:07:13.088Z,5.30
2018-12-25T02:10:12.156Z,5.30
2018-12-25T02:13:11.541Z,5.30
2018-12-25T02:16:10.897Z,5.30
2018-12-25T02:19:10.243Z,5.30
2018-12-25T02:22:32.676Z,5.30
2018-12-25T02:25:32.075Z,5.30
2018-12-25T02:28:31.249Z,5.30
2018-12-25T02:31:33.678Z,5.30
2018-12-25T02:34:33.033Z,5.30
2018-12-25T02:37:32.349Z,5.30
2018-12-25T02:40:31.628Z,5.30
2018-12-25T02:43:31.127Z,5.30
2018-12-25T02:46:30.368Z,5.40
2018-12-25T02:49:29.782Z,5.40
2018-12-25T02:52:29.160Z,5.40
2018-12-25T02:55:28.432Z,5.40
2018-12-25T02:58:27.546Z,5.40
2018-12-25T03:01:26.911Z,5.40
2018-12-25T03:04:29.382Z,5.40
2018-12-25T03:07:28.537Z,5.50
2018-12-25T03:10:30.804Z,5.50
2018-12-25T03:13:33.287Z,5.50
2018-12-25T03:16:32.488Z,5.50
2018-12-25T03:19:34.841Z,5.50
2018-12-25T03:22:34.090Z,5.50
2018-12-25T03:25:33.535Z,5.50
2018-12-25T03:28:32.882Z,5.50
2018-12-25T03:31:32.352Z,5.60
2018-12-25T03:34:33.829Z,5.60
2018-12-25T03:37:36.400Z,5.60
2018-12-25T03:40:35.850Z,5.60
2018-12-25T03:43:35.309Z,5.70
2018-12-25T03:46:34.458Z,5.60
2018-12-25T03:49:33.918Z,5.60
2018-12-25T03:52:33.110Z,5.60
2018-12-25T03:55:32.465Z,5.60
2018-12-25T03:58:32.033Z,5.60
2018-12-25T04:01:31.268Z,5.60
2018-12-25T04:04:30.738Z,5.60
2018-12-25T04:07:30.060Z,5.60
2018-12-25T04:10:29.254Z,5.60
2018-12-25T04:13:32.769Z,5.60
2018-12-25T04:16:55.431Z,5.60
2018-12-25T04:19:54.620Z,5.60
2018-12-25T04:22:54.018Z,5.60
2018-12-25T04:25:53.277Z,5.60
2018-12-25T04:28:52.622Z,5.70
2018-12-25T04:31:51.862Z,5.70
2018-12-25T04:34:51.175Z,5.70
2018-12-25T04:37:50.665Z,5.70
2018-12-25T04:40:53.182Z,5.70
2018-12-25T04:43:55.339Z,5.70
2018-12-25T04:46:57.554Z,5.60
2018-12-25T04:49:56.957Z,5.60
2018-12-25T04:53:16.542Z,5.60
2018-12-25T04:56:16.082Z,5.60
2018-12-25T04:59:15.461Z,5.60
2018-12-25T05:02:14.702Z,5.60
2018-12-25T05:05:17.004Z,5.60
2018-12-25T05:08:19.461Z,5.60
2018-12-25T05:11:21.629Z,5.70
2018-12-25T05:14:24.062Z,5.70
2018-12-25T05:17:12.953Z,5.70
2018-12-25T05:20:18.909Z,5.70
2018-12-25T05:23:18.066Z,5.70
2018-12-25T05:26:17.438Z,5.70
2018-12-25T05:29:16.770Z,5.70
2018-12-25T05:32:16.216Z,5.70
2018-12-25T05:35:15.427Z,5.70
2018-12-25T05:38:14.629Z,5.70
2018-12-25T05:41:14.255Z,5.70
2018-12-25T05:44:13.669Z,5.70
2018-12-25T05:47:12.725Z,5.70
2018-12-25T05:50:11.912Z,5.70
2018-12-25T05:53:11.274Z,5.70
2018-12-25T05:56:10.538Z,5.70
2018-12-25T05:59:09.972Z,5.80
2018-12-25T06:02:09.598Z,5.80
2018-12-25T06:05:08.572Z,5.80
2018-12-25T06:08:07.643Z,5.80
2018-12-25T06:11:10.043Z,5.70
2018-12-25T06:14:12.390Z,5.70
2018-12-25T06:17:14.529Z,5.70
2018-12-25T06:20:13.841Z,5.80
2018-12-25T06:23:13.094Z,5.80
2018-12-25T06:26:12.262Z,5.80
2018-12-25T06:29:11.470Z,5.70
2018-12-25T06:32:10.757Z,5.80
2018-12-25T06:35:09.955Z,5.80
2018-12-25T06:38:12.433Z,5.70
2018-12-25T06:41:11.853Z,5.70
2018-12-25T06:44:11.280Z,5.70
2018-12-25T06:47:10.674Z,5.70
2018-12-25T06:50:09.917Z,5.70
2018-12-25T06:53:09.200Z,5.70
2018-12-25T06:56:08.425Z,5.70
2018-12-25T06:58:54.489Z,5.70
2018-12-25T07:02:00.461Z,5.70
2018-12-25T07:05:20.084Z,5.70
2018-12-25T07:08:19.402Z,5.70
2018-12-25T07:11:18.622Z,5.70
2018-12-25T07:14:20.985Z,5.70
2018-12-25T07:17:22.577Z,5.70
2018-12-25T07:20:22.047Z,5.70
2018-12-25T07:23:21.388Z,5.70
2018-12-25T07:26:21.049Z,5.70
2018-12-25T07:29:20.397Z,5.70
2018-12-25T07:32:06.452Z,5.70
2018-12-25T07:35:12.377Z,5.70
2018-12-25T07:38:12.017Z,5.70
2018-12-25T07:41:11.260Z,5.70
2018-12-25T07:44:16.596Z,5.70
2018-12-25T07:47:18.983Z,5.80
2018-12-25T07:50:18.162Z,5.70
2018-12-25T07:53:40.488Z,5.70
2018-12-25T07:56:39.746Z,5.70
2018-12-25T07:59:42.220Z,5.70
2018-12-25T08:02:41.542Z,5.70
2018-12-25T08:05:40.845Z,5.80
2018-12-25T08:08:40.284Z,5.80
2018-12-25T08:11:39.597Z,5.80
2018-12-25T08:14:38.710Z,5.80
2018-12-25T08:17:38.271Z,5.80
2018-12-25T08:20:40.417Z,5.80
2018-12-25T08:23:39.724Z,5.90
2018-12-25T08:27:02.298Z,5.90
2018-12-25T08:30:01.781Z,5.90
2018-12-25T08:33:00.814Z,5.90
2018-12-25T08:36:03.342Z,5.90
2018-12-25T08:39:03.709Z,5.90
2018-12-25T08:42:03.204Z,5.90
2018-12-25T08:45:02.583Z,5.90
2018-12-25T08:48:01.807Z,5.90
2018-12-25T08:51:01.066Z,5.90
2018-12-25T08:54:00.356Z,5.90
2018-12-25T08:56:59.676Z,5.90
2018-12-25T08:59:59.100Z,5.90
2018-12-25T09:02:58.555Z,5.80
2018-12-25T09:05:57.677Z,5.90
2018-12-25T09:08:56.971Z,5.90
2018-12-25T09:11:56.374Z,5.90
2018-12-25T09:14:55.551Z,5.90
2018-12-25T09:17:54.777Z,6.00
2018-12-25T09:20:53.946Z,6.10
2018-12-25T09:23:53.112Z,6.20
2018-12-25T09:26:52.402Z,6.20
2018-12-25T09:29:51.562Z,6.30
2018-12-25T09:32:50.757Z,6.20
2018-12-25T09:35:50.315Z,6.30
2018-12-25T09:38:49.644Z,6.30
2018-12-25T09:41:52.041Z,6.40
2018-12-25T09:44:51.310Z,6.40
2018-12-25T09:47:50.555Z,6.30
2018-12-25T09:50:49.899Z,6.40
2018-12-25T09:53:52.389Z,6.40
2018-12-25T09:57:11.901Z,6.40
2018-12-25T10:00:11.058Z,6.50
2018-12-25T10:03:10.394Z,6.50
2018-12-25T10:09:31.976Z,6.60
2018-12-25T10:12:31.320Z,6.60
2018-12-25T10:15:33.760Z,6.60
2018-12-25T10:18:35.952Z,6.60
2018-12-25T10:21:38.389Z,6.60
2018-12-25T10:24:40.683Z,6.70
2018-12-25T10:27:40.394Z,6.70
2018-12-25T10:30:39.580Z,6.80
2018-12-25T10:33:41.083Z,6.80
2018-12-25T10:36:27.146Z,6.80
2018-12-25T10:39:53.092Z,6.80
2018-12-25T10:42:52.058Z,6.80
2018-12-25T10:45:51.584Z,6.90
2018-12-25T10:48:50.968Z,6.90
2018-12-25T10:51:53.318Z,6.90
2018-12-25T10:54:39.384Z,6.90
2018-12-25T10:57:45.337Z,7.00
2018-12-25T11:01:04.585Z,7.00
2018-12-25T11:03:53.487Z,6.90
2018-12-25T11:06:59.481Z,6.90
2018-12-25T11:09:58.582Z,6.90
2018-12-25T11:13:21.321Z,6.90
2018-12-25T11:16:20.534Z,6.90
2018-12-25T11:19:19.947Z,7.00
2018-12-25T11:22:19.889Z,7.00
2018-12-25T11:25:19.421Z,7.10
2018-12-25T11:28:18.619Z,7.10
2018-12-25T11:31:17.874Z,7.00
2018-12-25T11:34:17.345Z,7.10
2018-12-25T11:37:16.532Z,7.10
2018-12-25T11:40:15.834Z,7.10
2018-12-25T11:43:15.278Z,7.20
2018-12-25T11:46:14.377Z,7.20
2018-12-25T11:49:13.958Z,7.20
2018-12-25T11:52:33.497Z,7.30
2018-12-25T11:55:35.855Z,7.40
2018-12-25T11:58:35.192Z,7.40
2018-12-25T12:01:37.370Z,7.40
2018-12-25T12:04:39.726Z,7.40
2018-12-25T12:07:42.166Z,7.50
2018-12-25T12:10:43.702Z,7.60
2018-12-25T12:13:43.122Z,7.60
2018-12-25T12:16:42.743Z,7.70
2018-12-25T12:20:02.221Z,7.70
2018-12-25T12:23:01.573Z,7.70
2018-12-25T12:26:03.794Z,7.70
2018-12-25T12:29:26.020Z,7.80
2018-12-25T12:32:28.068Z,7.80
2018-12-25T12:35:29.825Z,7.90
2018-12-25T12:38:29.217Z,7.80
2018-12-25T12:41:28.545Z,7.80
2018-12-25T12:44:28.073Z,7.70
2018-12-25T12:47:30.378Z,7.70
2018-12-25T12:50:32.789Z,7.70
2018-12-25T12:53:55.325Z,7.80
2018-12-25T12:56:54.638Z,7.80
2018-12-25T12:59:53.669Z,7.70
2018-12-25T13:03:16.330Z,7.80
2018-12-25T13:06:15.527Z,7.90
2018-12-25T13:09:14.843Z,7.90
2018-12-25T13:12:13.925Z,7.90
2018-12-25T13:15:13.244Z,7.90
2018-12-25T13:18:12.538Z,7.90
2018-12-25T13:21:11.661Z,7.90
2018-12-25T13:24:11.088Z,7.90
2018-12-25T13:27:10.262Z,8.00
2018-12-25T13:30:09.742Z,8.00
2018-12-25T13:33:09.097Z,8.00
2018-12-25T13:36:08.442Z,8.00
2018-12-25T13:39:31.074Z,7.90
2018-12-25T13:42:30.198Z,8.00
2018-12-25T13:45:29.442Z,7.90
2018-12-25T13:48:28.670Z,8.00
2018-12-25T13:51:28.081Z,8.00
2018-12-25T13:54:27.226Z,8.00
2018-12-25T13:57:26.479Z,8.00
2018-12-25T14:00:25.942Z,8.00
2018-12-25T14:03:25.540Z,8.00
2018-12-25T14:06:44.876Z,8.00
2018-12-25T14:09:44.173Z,8.00
2018-12-25T14:12:43.566Z,8.00
2018-12-25T14:15:24.654Z,7.90
2018-12-25T14:18:04.074Z,7.90
2018-12-25T14:20:44.181Z,7.90
2018-12-25T14:23:24.225Z,8.00
2018-12-25T14:26:06.123Z,7.90
2018-12-25T14:28:45.310Z,8.00
2018-12-25T14:31:25.407Z,8.00
2018-12-25T14:34:05.432Z,8.00
2018-12-25T14:36:45.771Z,7.90
2018-12-25T14:39:25.985Z,8.00
2018-12-25T14:42:06.042Z,8.00
2018-12-25T14:44:45.598Z,8.00
2018-12-25T14:47:25.693Z,7.90
2018-12-25T14:50:05.547Z,7.90
2018-12-25T14:52:45.984Z,7.90
2018-12-25T14:55:26.036Z,7.90
2018-12-25T14:58:06.184Z,7.80
2018-12-25T15:00:46.065Z,7.80
2018-12-25T15:03:28.242Z,7.80
2018-12-25T15:06:08.277Z,7.80
2018-12-25T15:08:51.137Z,7.80
2018-12-25T15:11:31.341Z,7.80
2018-12-25T15:14:11.069Z,7.70
2018-12-25T15:16:50.233Z,7.80
2018-12-25T15:19:29.590Z,7.80
2018-12-25T15:22:09.432Z,7.80
2018-12-25T15:24:51.322Z,7.70
2018-12-25T15:27:51.212Z,7.80
2018-12-25T15:30:31.344Z,7.80
2018-12-25T15:33:31.480Z,7.80
2018-12-25T15:36:13.394Z,7.80
2018-12-25T15:38:53.519Z,7.70
2018-12-25T15:41:33.553Z,7.70
2018-12-25T15:44:13.429Z,7.70
2018-12-25T15:46:55.318Z,7.60
2018-12-25T15:49:35.241Z,7.60
2018-12-25T15:52:15.386Z,7.60
2018-12-25T15:54:55.276Z,7.60
2018-12-25T15:57:37.361Z,7.60
2018-12-25T16:00:20.312Z,7.60
2018-12-25T16:03:00.148Z,7.50
2018-12-25T16:05:39.439Z,7.60
2018-12-25T16:08:21.437Z,7.60
2018-12-25T16:11:21.612Z,7.60
2018-12-25T16:14:03.619Z,7.60
2018-12-25T16:16:43.749Z,7.60
2018-12-25T16:19:23.702Z,7.50
2018-12-25T16:22:03.632Z,7.50
2018-12-25T16:24:46.530Z,7.40
2018-12-25T16:27:26.329Z,7.50
2018-12-25T16:30:06.346Z,7.50
2018-12-25T16:32:48.682Z,7.40
2018-12-25T16:35:31.679Z,7.40
2018-12-25T16:38:11.703Z,7.50
2018-12-25T16:40:51.634Z,7.50
2018-12-25T16:43:30.983Z,7.50
2018-12-25T16:46:11.154Z,7.50
2018-12-25T16:48:51.207Z,7.50
2018-12-25T16:51:33.350Z,7.40
2018-12-25T16:54:30.830Z,7.30
2018-12-25T16:57:11.153Z,7.30
2018-12-25T16:59:51.570Z,7.20
2018-12-25T17:02:33.470Z,7.20
2018-12-25T17:05:13.609Z,7.20
2018-12-25T17:07:53.565Z,7.20
2018-12-25T17:10:33.563Z,7.20
2018-12-25T17:13:34.964Z,7.20
2018-12-25T17:16:14.663Z,7.20
2018-12-25T17:18:54.578Z,7.10
2018-12-25T17:21:34.565Z,7.10
2018-12-25T17:24:34.499Z,7.10
2018-12-25T17:27:16.590Z,7.10
2018-12-25T17:29:56.313Z,7.00
2018-12-25T17:32:38.374Z,7.00
2018-12-25T17:35:21.209Z,7.00
2018-12-25T17:38:01.309Z,7.00
2018-12-25T17:40:41.169Z,7.00
2018-12-25T17:43:21.160Z,7.00
2018-12-25T17:46:04.046Z,6.90
2018-12-25T17:48:44.082Z,6.90
2018-12-25T17:51:24.266Z,6.90
2018-12-25T17:54:10.671Z,6.90
2018-12-25T17:56:49.062Z,6.90
2018-12-25T17:59:29.282Z,6.90
2018-12-25T18:02:11.258Z,6.90
2018-12-25T18:04:51.234Z,6.90
2018-12-25T18:07:30.936Z,6.90
2018-12-25T18:10:13.021Z,6.90
2018-12-25T18:12:55.073Z,6.90
2018-12-25T18:15:35.154Z,7.00
2018-12-25T18:18:15.187Z,6.90
2018-12-25T18:20:55.306Z,6.90
2018-12-25T18:23:35.426Z,6.90
2018-12-25T18:26:15.480Z,6.90
2018-12-25T18:28:55.474Z,6.90
2018-12-25T18:31:41.216Z,6.80
2018-12-25T18:34:21.369Z,6.90
2018-12-25T18:37:01.074Z,6.80
2018-12-25T18:39:43.045Z,6.80
2018-12-25T18:42:23.437Z,6.80
2018-12-25T18:45:03.961Z,6.80
2018-12-25T18:48:04.075Z,6.80
2018-12-25T18:50:43.921Z,6.80
2018-12-25T18:53:23.739Z,6.80
2018-12-25T18:56:05.690Z,6.80
2018-12-25T18:58:45.593Z,6.80
2018-12-25T19:01:26.956Z,6.80
2018-12-25T19:04:06.579Z,6.80
2018-12-25T19:06:46.426Z,6.80
2018-12-25T19:09:28.413Z,6.70
2018-12-25T19:12:08.346Z,6.80
2018-12-25T19:14:48.396Z,6.70
2018-12-25T19:17:28.382Z,6.70
2018-12-25T19:20:10.778Z,6.70
2018-12-25T19:22:51.007Z,6.70
2018-12-25T19:25:30.987Z,6.70
2018-12-25T19:28:10.745Z,6.70
2018-12-25T19:30:52.748Z,6.70
2018-12-25T19:33:32.802Z,6.80
2018-12-25T19:36:12.846Z,6.70
2018-12-25T19:38:52.644Z,6.70
2018-12-25T19:41:34.541Z,6.70
2018-12-25T19:44:14.510Z,6.70
2018-12-25T19:46:54.401Z,6.60
2018-12-25T19:49:34.424Z,6.70
2018-12-25T19:52:16.723Z,6.70
2018-12-25T19:55:16.768Z,6.70
2018-12-25T19:58:16.751Z,6.70
2018-12-25T20:00:56.794Z,6.60
2018-12-25T20:03:36.734Z,6.60
2018-12-25T20:06:16.505Z,6.70
2018-12-25T20:08:58.439Z,6.70
2018-12-25T20:11:38.400Z,6.70
2018-12-25T20:14:18.395Z,6.80
2018-12-25T20:17:01.485Z,6.70
2018-12-25T20:19:43.760Z,6.70
2018-12-25T20:22:25.651Z,6.70
2018-12-25T20:25:05.624Z,6.60
2018-12-25T20:27:45.595Z,6.60
2018-12-25T20:30:25.570Z,6.60
2018-12-25T20:33:05.335Z,6.60
2018-12-25T20:35:45.206Z,6.60
2018-12-25T20:38:25.132Z,6.60
2018-12-25T20:41:08.005Z,6.50
2018-12-25T20:43:47.900Z,6.50
2018-12-25T20:46:27.961Z,6.50
2018-12-25T20:49:07.990Z,6.40
2018-12-25T20:51:50.031Z,6.40
2018-12-25T20:54:31.830Z,6.30
2018-12-25T20:57:11.870Z,6.30
2018-12-25T20:59:51.495Z,6.30
2018-12-25T21:02:33.619Z,6.30
2018-12-25T21:05:15.512Z,6.30
2018-12-25T21:07:55.591Z,6.30
2018-12-25T21:10:35.365Z,6.20
2018-12-25T21:13:17.442Z,6.20
2018-12-25T21:16:00.447Z,6.20
2018-12-25T21:19:00.362Z,6.20
2018-12-25T21:21:39.595Z,6.20
2018-12-25T21:24:19.462Z,6.30
2018-12-25T21:26:59.422Z,6.20
2018-12-25T21:29:42.343Z,6.20
2018-12-25T21:32:22.300Z,6.10
2018-12-25T21:35:02.142Z,6.10
2018-12-25T21:37:44.102Z,6.10
2018-12-25T21:40:24.048Z,6.00
2018-12-25T21:43:04.028Z,6.00
2018-12-25T21:45:44.049Z,6.00
2018-12-25T21:48:44.048Z,6.00
2018-12-25T21:51:25.953Z,5.90
2018-12-25T21:54:06.045Z,5.90
2018-12-25T21:56:45.886Z,5.90
2018-12-25T21:59:25.899Z,5.80
2018-12-25T22:02:05.701Z,5.70
2018-12-25T22:04:43.725Z,5.70
2018-12-25T22:07:30.164Z,5.70
2018-12-25T22:10:29.673Z,5.60
2018-12-25T22:13:09.585Z,5.60
2018-12-25T22:15:52.366Z,5.60
2018-12-25T22:18:34.393Z,5.60
2018-12-25T22:21:14.045Z,5.50
2018-12-25T22:23:56.914Z,5.40
2018-12-25T22:26:36.604Z,5.40
2018-12-25T22:29:16.575Z,5.40
2018-12-25T22:32:16.656Z,5.40
2018-12-25T22:34:56.633Z,5.40
2018-12-25T22:37:36.789Z,5.40
2018-12-25T22:40:23.104Z,5.40
2018-12-25T22:43:08.039Z,5.40
2018-12-25T22:45:34.422Z,5.40
2018-12-25T22:48:03.588Z,5.40
2018-12-25T22:50:32.721Z,5.40
2018-12-25T22:53:01.766Z,5.40
2018-12-25T22:55:46.560Z,5.40
2018-12-25T22:58:12.960Z,5.50
2018-12-25T23:00:39.632Z,5.50
2018-12-25T23:03:06.019Z,5.50
2018-12-25T23:05:32.414Z,5.50
2018-12-25T23:07:58.776Z,5.50
2018-12-25T23:10:25.176Z,5.50
2018-12-25T23:12:51.619Z,5.50
2018-12-25T23:15:18.068Z,5.50
2018-12-25T23:17:47.130Z,5.40
2018-12-25T23:20:16.197Z,5.40
2018-12-25T23:22:42.630Z,5.40
2018-12-25T23:25:11.640Z,5.40
2018-12-25T23:27:37.917Z,5.40
2018-12-25T23:30:07.030Z,5.40
2018-12-25T23:32:33.368Z,5.40
2018-12-25T23:34:59.731Z,5.40
2018-12-25T23:37:29.052Z,5.40
2018-12-25T23:39:58.289Z,5.30
2018-12-25T23:42:27.420Z,5.20
2018-12-25T23:44:56.467Z,5.20
2018-12-25T23:47:24.745Z,5.20
2018-12-25T23:49:51.008Z,5.20
2018-12-25T23:52:20.076Z,5.20
2018-12-25T23:54:46.337Z,5.10
2018-12-25T23:57:12.789Z,5.20
2018-12-25T23:59:39.230Z,5.20
